默认 日期 大小 文件数 浏览量 最新下载 xml
2026.2磁力链接相关资源由用户搜索指令自动获取,结果来源于网络,本站不存储任何资料,亦不承担任何责任,请于24小时内删除,搜索到1432个磁力,用时9ms。
    {"Torrent Downloaded From UIndex.org .txt": 127, "Ready or Not 2 Here I Come 2026 1080p AMZN WEB-DL DDP5 1 H 264-KyoGo.mkv": 7664382426, "Ready or Not 2 Here I Come 2026 1080p AMZN WEB-DL DDP5 1 H 264-KyoGo.mkv.nfo": 982}
创建时间: 2026-05-05 15:19:30 大小:7.14 GB 文件数量:3 热度:0
    {"XFILMESVIATORRENT.COM.BR.url": 63, "O Diabo Veste Prada 2 - Dub 2026.mp4": 1790498979}
创建时间: 2026-05-05 15:31:29 大小:1.67 GB 文件数量:2 热度:0
    {"资源封面.jpg": 333471, "网盘链接在这.txt": 258, "资源网:【yiyidj.org】": 530, "【yiyidj.org】名称:大主宰年番2(2026)动作动画奇幻4KHDR高码更新55集-网资源分享.txt": 530}
创建时间: 2026-05-05 16:25:30 大小:326.94 KB 文件数量:4 热度:0
    ... 荐.mp4": 75923279, "16 20262月最新,极 ...
创建时间: 2026-05-05 16:39:41 大小:1.77 GB 文件数量:8 热度:0
    {"ready.or.not.2.here.i.come.2026.hdr.2160p.web.h265-poke.mkv": 16640110380}
创建时间: 2026-05-05 17:00:50 大小:15.5 GB 文件数量:1 热度:0
    ... , "ready.or.not.2.here.i.come.2026.1080p.web.h264-poke ... .mkv": 7664377399, "ready.or.not.2 ... .here.i.come.2026.1080p.web.h264-poke ...
创建时间: 2026-05-05 17:51:29 大小:7.14 GB 文件数量:7 热度:0
    {"01.Formula.2.2026.Chasing.The.Dream.Testing.SkyF1HD.1080P.mkv": 720470506, "02.Formula.2.2026.Chasing.The.Dream.Australia.SkyF1HD.1080P.mkv": 702759585}
创建时间: 2026-05-05 18:19:38 大小:1.33 GB 文件数量:2 热度:0
    {"Ready.or.Not.2.Here.I.Come.2026.2160p.MA.WEB-DL.H265 ...
创建时间: 2026-05-06 08:05:18 大小:19.39 GB 文件数量:4 热度:0
    {"Veerappan The Bandit King - S01E04 Treachery Thy Name.mkv": 788971969, "Veerappan The Bandit King - S01E06 Plan & Counterplan.mkv": 1267676828, "Veerappan The Bandit King - S01E05 Beheading The Officer.mkv": 838461475, "Veerappan The Bandit King - S01E02 ...
创建时间: 2026-05-06 08:08:22 大小:4.99 GB 文件数量:6 热度:0
    {"Torrent Downloaded From UIndex.org .txt": 127, "Ready Or Not 2 Here I Come 2026 1080p MA WEB-DL DDP5 1 Atmos H 264-BYNDR.mkv": 7004613328, "Ready Or Not 2 Here I Come 2026 1080p MA WEB-DL DDP5 1 Atmos H 264-BYNDR.mkv.nfo": 880}
创建时间: 2026-05-06 08:28:21 大小:6.52 GB 文件数量:3 热度:0
    ... .nfo": 168, "BorisFX Mocha Pro 2026.0.2 AVX.exe": 1240044816}, "Boris ... .nfo": 168, "BorisFX Mocha Pro 2026.0.2 OFX.exe": 1235931656}, "Boris ... ": 171, "Boris FX Mocha Pro 2026.0.2 for Adobe.exe": 1239315888}}
创建时间: 2026-05-06 11:41:42 大小:3.46 GB 文件数量:6 热度:0
    {"hackstore.url": 123, "Boda.Sangrienta.2.2026.1080P-Dual-Lat.mkv": 2265974940, "Boda.Sangrienta.2.2026.1080P-Dual-Lat_Track04.srt": 876}
创建时间: 2026-05-06 11:46:58 大小:2.11 GB 文件数量:3 热度:0
    {"Downloaded From ext.to.txt": 371, "Downloaded From The Pirate Bay.txt": 402, "AUDIO LIST ENG LATINO SPANISH FRENCH (VF2) ITALIAN RUSSIAN.txt": 58, "Ready.Or.Not.2.Here.I.Come.2026.2160P.WEB-DL.DV.HDR10+.MULTi[Ben The Men].mp4": 25083478365}
创建时间: 2026-05-06 12:09:10 大小:23.36 GB 文件数量:4 热度:0
    {"Ready.or.Not.2.Here.I.Come.2026.2160p.iT.WEB-DL.DDP5.1.Atmos.DV.HDR.H.265-BYNDR.mkv": 20361463710, "ready.or.not.2.here.i.come.2026.2160p.it.web-dl.ddp5.1.atmos.dv.hdr.h.265-byndr.nfo": 792}
创建时间: 2026-05-06 13:49:42 大小:18.96 GB 文件数量:2 热度:0
    {"WOTH2": {"Content": {"BASE": {"Audio": {"Desktop": {"Master.bank": 926885504, "Master.strings.bank": 92636}}, "Stringtables": {"GatheredStringtables.nrg": 0}}, "Paks": {"global.ucas": 3732064, "global.utoc": 878, "pakchunk0-Windows.pak": 63262604, " ...
创建时间: 2026-05-06 14:34:02 大小:16.63 GB 文件数量:65 热度:0
    {"Canal Telegram Oficial.url": 112, "Border 2 (Violencia en la frontera 2) (2026) [Bluray][Esp].avi": 2632156744}
创建时间: 2026-05-06 16:58:18 大小:2.45 GB 文件数量:2 热度:0
    {"Veerappan The Bandit King - S01E04 Treachery Thy Name.mkv": 277006815, "Veerappan The Bandit King - S01E06 Plan & Counterplan.mkv": 444422951, "Veerappan The Bandit King - S01E05 Beheading The Officer.mkv": 285433113, "Veerappan The Bandit King - S01E02 ...
创建时间: 2026-05-06 18:17:35 大小:1.73 GB 文件数量:6 热度:0
    {"God.of.Frogs.2026.1080p.AMZN.WEB-DL.DDP.2.0.H.264.mkv": 7015987984, "God.of.Frogs.2026.1080p.AMZN.WEB-DL.DDP.2.0.H.264.srt": 113453}
创建时间: 2026-05-06 18:57:48 大小:6.53 GB 文件数量:2 热度:0
    {"www.1TamilMV.center - Citadel S02E03 Chinos.mkv": 311702084, "www.1TamilMV.center - Citadel S02E05 Heirlooms.mkv": 315424644, "www.1TamilMV.center - Citadel S02E06 Highlands.mkv": 262005665, "www.1TamilMV.center - Citadel S02E07 Chin Chin.mkv": 359910013 ...
创建时间: 2026-05-06 19:19:10 大小:2.19 GB 文件数量:7 热度:0
    ... , "Torrent Downloaded From Gtorrents.sbs (2).txt": 373}, "Torrent Downloaded From ... ": 116, "The.Devil.Wears.Prada.2.2026.1080p.Telesync.h265.Latino YG ...
创建时间: 2026-05-06 19:28:50 大小:7.32 GB 文件数量:10 热度:0